createdAt,value
2023-08-15T00:00:37.891Z,5.40
2023-08-15T00:03:07.349Z,6.03
2023-08-15T00:05:39.357Z,5.38
2023-08-15T00:08:08.529Z,5.50
2023-08-15T00:10:39.208Z,5.50
2023-08-15T00:13:08.165Z,5.22
2023-08-15T00:15:37.167Z,4.90
2023-08-15T00:18:06.744Z,5.32
2023-08-15T00:20:35.865Z,5.10
2023-08-15T00:23:05.204Z,4.80
2023-08-15T00:25:34.480Z,4.50
2023-08-15T00:28:05.397Z,4.88
2023-08-15T00:30:35.194Z,5.40
2023-08-15T00:33:04.318Z,4.80
2023-08-15T00:35:33.298Z,5.15
2023-08-15T00:38:02.357Z,5.25
2023-08-15T00:40:31.340Z,5.30
2023-08-15T00:43:00.412Z,5.10
2023-08-15T00:45:31.564Z,4.85
2023-08-15T00:48:00.728Z,5.07
2023-08-15T00:50:29.987Z,5.10
2023-08-15T00:52:59.138Z,4.72
2023-08-15T00:55:29.044Z,4.90
2023-08-15T00:57:58.390Z,5.00
2023-08-15T01:00:29.798Z,4.90
2023-08-15T01:02:59.391Z,4.80
2023-08-15T01:05:29.100Z,4.78
2023-08-15T01:07:58.465Z,4.60
2023-08-15T01:10:27.505Z,5.00
2023-08-15T01:13:04.893Z,4.60
2023-08-15T01:15:40.377Z,5.20
2023-08-15T01:18:12.876Z,4.70
2023-08-15T01:20:42.307Z,4.60
2023-08-15T01:23:14.558Z,5.10
2023-08-15T01:25:45.493Z,4.43
2023-08-15T01:28:16.251Z,4.80
2023-08-15T01:30:49.364Z,4.55
2023-08-15T01:33:24.864Z,4.75
2023-08-15T01:36:03.679Z,4.55
2023-08-15T01:38:40.668Z,4.80
2023-08-15T01:41:15.221Z,4.70
2023-08-15T01:43:46.353Z,5.13
2023-08-15T01:46:15.689Z,4.68
2023-08-15T01:48:50.035Z,4.60
2023-08-15T01:51:19.026Z,4.28
2023-08-15T01:53:48.010Z,5.13
2023-08-15T01:56:18.866Z,4.43
2023-08-15T01:58:47.882Z,4.68
2023-08-15T02:01:16.857Z,4.90
2023-08-15T02:03:45.869Z,4.68
2023-08-15T02:06:14.962Z,5.18
2023-08-15T02:08:43.984Z,4.60
2023-08-15T02:11:13.050Z,4.90
2023-08-15T02:13:43.672Z,4.63
2023-08-15T02:16:12.887Z,4.50
2023-08-15T02:18:42.480Z,4.50
2023-08-15T02:21:11.702Z,5.10
2023-08-15T02:23:40.699Z,4.63
2023-08-15T02:26:09.868Z,5.18
2023-08-15T02:28:38.876Z,4.32
2023-08-15T02:31:12.479Z,5.10
2023-08-15T02:33:41.650Z,4.88
2023-08-15T02:36:11.178Z,4.60
2023-08-15T02:38:40.193Z,4.57
2023-08-15T02:41:09.168Z,4.88
2023-08-15T02:43:38.172Z,5.50
2023-08-15T02:46:08.853Z,5.53
2023-08-15T02:48:37.875Z,5.00
2023-08-15T02:51:09.531Z,4.68
2023-08-15T02:53:38.515Z,4.43
2023-08-15T02:56:07.976Z,5.25
2023-08-15T02:58:37.048Z,4.90
2023-08-15T03:01:06.171Z,4.47
2023-08-15T03:03:36.784Z,5.28
2023-08-15T03:06:06.156Z,5.15
2023-08-15T03:08:35.140Z,5.47
2023-08-15T03:11:04.185Z,5.20
2023-08-15T03:13:33.233Z,5.53
2023-08-15T03:16:02.211Z,5.63
2023-08-15T03:18:31.152Z,5.65
2023-08-15T03:21:02.912Z,6.10
2023-08-15T03:23:32.233Z,6.03
2023-08-15T03:26:02.434Z,5.90
2023-08-15T03:28:32.103Z,6.13
2023-08-15T03:31:06.853Z,6.63
2023-08-15T03:33:36.828Z,6.00
2023-08-15T03:36:08.064Z,6.65
2023-08-15T03:38:37.675Z,6.40
2023-08-15T03:41:08.155Z,6.50
2023-08-15T03:43:37.741Z,6.43
2023-08-15T03:46:07.986Z,6.53
2023-08-15T03:48:38.041Z,7.15
2023-08-15T03:51:08.872Z,6.43
2023-08-15T03:53:38.788Z,6.22
2023-08-15T03:56:07.730Z,6.88
2023-08-15T03:58:36.713Z,6.93
2023-08-15T04:01:06.137Z,6.00
2023-08-15T04:03:35.222Z,6.57
2023-08-15T04:06:04.382Z,6.82
2023-08-15T04:08:35.093Z,7.35
2023-08-15T04:11:04.578Z,6.68
2023-08-15T04:13:33.644Z,6.80
2023-08-15T04:16:02.739Z,7.10
2023-08-15T04:18:31.931Z,6.68
2023-08-15T04:21:00.931Z,7.53
2023-08-15T04:23:29.921Z,7.65
2023-08-15T04:26:00.536Z,8.55
2023-08-15T04:28:29.608Z,8.70
2023-08-15T04:30:58.866Z,8.45
2023-08-15T04:33:28.346Z,8.70
2023-08-15T04:35:57.365Z,7.97
2023-08-15T04:38:26.653Z,8.02
2023-08-15T04:40:58.110Z,8.38
2023-08-15T04:43:29.851Z,8.68
2023-08-15T04:45:58.790Z,8.85
2023-08-15T04:48:27.876Z,8.75
2023-08-15T04:50:56.916Z,8.05
2023-08-15T04:53:25.934Z,8.13
2023-08-15T04:55:54.917Z,7.43
2023-08-15T04:58:23.956Z,8.30
2023-08-15T05:00:54.941Z,7.82
2023-08-15T05:03:23.970Z,8.55
2023-08-15T05:05:52.912Z,9.40
2023-08-15T05:08:21.881Z,8.52
2023-08-15T05:10:50.902Z,8.25
2023-08-15T05:13:20.041Z,9.38
2023-08-15T05:15:49.042Z,8.85
2023-08-15T05:18:19.920Z,9.00
2023-08-15T05:20:49.583Z,8.95
2023-08-15T05:23:18.757Z,8.80
2023-08-15T05:25:48.843Z,10.63
2023-08-15T05:28:17.875Z,9.60
2023-08-15T05:30:46.869Z,10.82
2023-08-15T05:33:15.868Z,11.13
2023-08-15T05:35:46.486Z,11.23
2023-08-15T05:38:15.415Z,12.20
2023-08-15T05:40:44.939Z,11.25
2023-08-15T05:43:13.981Z,11.32
2023-08-15T05:45:45.923Z,11.43
2023-08-15T05:48:14.949Z,11.85
2023-08-15T05:50:45.590Z,11.45
2023-08-15T05:53:14.567Z,11.15
2023-08-15T05:55:44.887Z,10.13
2023-08-15T05:58:13.964Z,10.70
2023-08-15T06:00:43.171Z,10.57
2023-08-15T06:03:12.571Z,9.80
2023-08-15T06:05:41.621Z,9.77
2023-08-15T06:08:12.248Z,10.40
2023-08-15T06:10:41.206Z,10.02
2023-08-15T06:13:10.203Z,9.50
2023-08-15T06:15:39.218Z,8.93
2023-08-15T06:18:08.620Z,9.77
2023-08-15T06:20:38.868Z,10.80
2023-08-15T06:23:07.922Z,9.77
2023-08-15T06:25:40.709Z,10.45
2023-08-15T06:28:10.992Z,9.95
2023-08-15T06:30:43.810Z,10.10
2023-08-15T06:33:12.825Z,10.90
2023-08-15T06:35:41.796Z,10.75
2023-08-15T06:38:10.774Z,10.90
2023-08-15T06:40:41.805Z,11.63
2023-08-15T06:43:10.755Z,11.88
2023-08-15T06:45:39.787Z,12.43
2023-08-15T06:48:09.405Z,12.60
2023-08-15T06:50:38.352Z,12.70
2023-08-15T06:53:07.862Z,12.77
2023-08-15T06:55:36.859Z,13.98
2023-08-15T06:58:07.683Z,13.60
2023-08-15T07:00:36.928Z,13.85
2023-08-15T07:03:06.540Z,14.57
2023-08-15T07:05:36.406Z,13.85
2023-08-15T07:08:05.732Z,13.65
2023-08-15T07:10:35.975Z,14.02
2023-08-15T07:13:06.899Z,15.18
2023-08-15T07:15:35.927Z,14.25
2023-08-15T07:18:05.154Z,13.93
2023-08-15T07:20:35.088Z,13.20
2023-08-15T07:23:04.521Z,13.98
2023-08-15T07:25:33.482Z,14.57
2023-08-15T07:28:02.707Z,14.73
2023-08-15T07:30:33.338Z,14.15
2023-08-15T07:33:02.494Z,15.25
2023-08-15T07:35:31.641Z,14.15
2023-08-15T07:38:01.883Z,14.73
2023-08-15T07:40:31.392Z,13.52
2023-08-15T07:43:00.370Z,13.73
2023-08-15T07:45:29.784Z,13.77
2023-08-15T07:48:00.553Z,15.30
2023-08-15T07:50:30.568Z,13.73
2023-08-15T07:53:00.470Z,14.77
2023-08-15T07:55:33.279Z,16.13
2023-08-15T07:58:02.726Z,14.88
2023-08-15T08:00:31.760Z,14.65
2023-08-15T08:03:02.476Z,14.75
2023-08-15T08:05:34.121Z,15.35
2023-08-15T08:08:06.444Z,16.10
2023-08-15T08:10:35.457Z,16.45
2023-08-15T08:13:06.454Z,15.85
2023-08-15T08:15:35.904Z,16.20
2023-08-15T08:18:07.220Z,17.10
2023-08-15T08:20:36.301Z,17.80
2023-08-15T08:23:05.446Z,18.08
2023-08-15T08:25:34.426Z,18.25
2023-08-15T08:28:03.433Z,17.27
2023-08-15T08:30:32.820Z,18.30
2023-08-15T08:33:01.964Z,18.42
2023-08-15T08:35:32.631Z,19.15
2023-08-15T08:38:01.610Z,20.20
2023-08-15T08:40:30.882Z,19.77
2023-08-15T08:43:00.622Z,20.75
2023-08-15T08:45:32.763Z,19.38
2023-08-15T08:48:02.477Z,18.77
2023-08-15T08:50:34.578Z,19.50
2023-08-15T08:53:03.774Z,18.67
2023-08-15T08:55:34.014Z,18.33
2023-08-15T08:58:05.096Z,19.70
2023-08-15T09:00:39.036Z,19.58
2023-08-15T09:03:08.368Z,20.67
2023-08-15T09:05:39.345Z,19.70
2023-08-15T09:08:08.734Z,20.83
2023-08-15T09:10:37.803Z,19.20
2023-08-15T09:13:07.013Z,20.95
2023-08-15T09:15:36.062Z,20.13
2023-08-15T09:18:06.738Z,19.88
2023-08-15T09:20:46.417Z,21.13
2023-08-15T09:23:15.440Z,20.55
2023-08-15T09:25:44.642Z,20.05
2023-08-15T09:28:13.712Z,19.30
2023-08-15T09:30:53.316Z,19.58
2023-08-15T09:33:22.734Z,19.42
2023-08-15T09:35:59.112Z,19.23
2023-08-15T09:38:29.725Z,21.85
2023-08-15T09:40:59.141Z,21.58
2023-08-15T09:43:28.122Z,20.80
2023-08-15T09:45:58.314Z,20.20
2023-08-15T09:48:28.107Z,20.15
2023-08-15T09:50:59.919Z,19.13
2023-08-15T09:53:28.917Z,18.95
2023-08-15T09:55:57.916Z,21.35
2023-08-15T09:58:27.105Z,20.20
2023-08-15T10:00:57.260Z,20.40
2023-08-15T10:03:34.052Z,19.20
2023-08-15T10:06:06.044Z,20.85
2023-08-15T10:08:36.043Z,20.30
2023-08-15T10:11:08.170Z,20.48
2023-08-15T10:13:39.542Z,20.23
2023-08-15T10:16:14.087Z,21.60
2023-08-15T10:18:54.279Z,21.08
2023-08-15T10:21:31.252Z,21.58
2023-08-15T10:24:05.858Z,21.20
2023-08-15T10:26:35.562Z,21.43
2023-08-15T10:29:05.121Z,21.13
2023-08-15T10:31:38.184Z,19.98
2023-08-15T10:34:10.401Z,21.25
2023-08-15T10:36:44.005Z,20.65
2023-08-15T10:39:17.295Z,19.42
2023-08-15T10:41:46.283Z,19.85
2023-08-15T10:44:17.449Z,20.13
2023-08-15T10:46:46.508Z,20.00
2023-08-15T10:49:15.475Z,21.38
2023-08-15T10:51:46.125Z,22.05
2023-08-15T10:54:16.446Z,19.92
2023-08-15T10:56:45.759Z,20.77
2023-08-15T10:59:16.485Z,20.98
2023-08-15T11:01:47.230Z,20.10
2023-08-15T11:04:17.342Z,22.05
2023-08-15T11:06:49.345Z,23.40
2023-08-15T11:09:19.166Z,21.50
2023-08-15T11:11:48.578Z,20.55
2023-08-15T11:14:18.530Z,21.75
2023-08-15T11:16:48.147Z,21.85
2023-08-15T11:19:18.020Z,21.60
2023-08-15T11:21:49.984Z,20.67
2023-08-15T11:24:19.008Z,21.20
2023-08-15T11:26:48.082Z,22.02
2023-08-15T11:29:17.693Z,20.63
2023-08-15T11:31:46.850Z,20.58
2023-08-15T11:34:17.498Z,20.67
2023-08-15T11:36:48.829Z,22.42
2023-08-15T11:39:17.763Z,21.35
2023-08-15T11:41:47.443Z,21.38
2023-08-15T11:44:21.549Z,19.92
2023-08-15T11:46:54.458Z,22.90
2023-08-15T11:49:25.182Z,21.73
2023-08-15T11:52:07.558Z,21.25
2023-08-15T11:54:36.623Z,21.08
2023-08-15T11:57:05.907Z,21.80
2023-08-15T11:59:34.988Z,21.40
2023-08-15T12:02:04.296Z,22.40
2023-08-15T12:04:36.559Z,22.80
2023-08-15T12:07:11.734Z,21.75
2023-08-15T12:09:40.919Z,22.42
2023-08-15T12:12:10.782Z,20.55
2023-08-15T12:14:50.949Z,22.90
2023-08-15T12:17:20.628Z,21.75
2023-08-15T12:19:49.663Z,20.73
2023-08-15T12:22:20.519Z,21.70
2023-08-15T12:24:49.688Z,20.35
2023-08-15T12:27:19.449Z,21.75
2023-08-15T12:30:11.967Z,21.48
2023-08-15T12:32:38.619Z,20.30
2023-08-15T12:35:08.119Z,21.55
2023-08-15T12:37:38.763Z,20.63
2023-08-15T12:40:18.088Z,20.65
2023-08-15T12:42:50.939Z,21.70
2023-08-15T12:45:19.940Z,21.80
2023-08-15T12:47:49.245Z,21.92
2023-08-15T12:50:18.611Z,21.55
2023-08-15T12:52:49.250Z,22.35
2023-08-15T12:55:18.277Z,21.50
2023-08-15T12:57:47.339Z,20.58
2023-08-15T13:00:18.389Z,22.45
2023-08-15T13:02:47.814Z,21.80
2023-08-15T13:05:16.890Z,21.42
2023-08-15T13:07:46.205Z,21.65
2023-08-15T13:10:16.835Z,22.88
2023-08-15T13:12:45.794Z,23.05
2023-08-15T13:15:14.793Z,20.90
2023-08-15T13:17:44.314Z,20.25
2023-08-15T13:20:16.504Z,21.27
2023-08-15T13:22:45.425Z,21.17
2023-08-15T13:25:16.017Z,22.23
2023-08-15T13:27:45.037Z,23.20
2023-08-15T13:30:14.621Z,21.50
2023-08-15T13:32:43.619Z,21.95
2023-08-15T13:35:12.607Z,22.88
2023-08-15T13:37:41.591Z,21.80
2023-08-15T13:40:12.108Z,23.95
2023-08-15T13:42:44.124Z,23.40
2023-08-15T13:45:13.432Z,24.10
2023-08-15T13:47:42.422Z,23.25
2023-08-15T13:50:12.091Z,23.42
2023-08-15T13:52:41.160Z,25.40
2023-08-15T13:55:11.195Z,22.27
2023-08-15T13:57:41.942Z,24.10
2023-08-15T14:00:12.910Z,25.60
2023-08-15T14:02:42.021Z,25.85
2023-08-15T14:05:11.421Z,25.00
2023-08-15T14:07:40.464Z,25.52
2023-08-15T14:10:11.154Z,23.25
2023-08-15T14:12:42.217Z,25.00
2023-08-15T14:15:11.913Z,25.08
2023-08-15T14:17:40.985Z,24.58
2023-08-15T14:20:10.818Z,23.85
2023-08-15T14:22:39.781Z,23.20
2023-08-15T14:25:09.937Z,25.55
2023-08-15T14:27:38.948Z,26.38
2023-08-15T14:30:10.691Z,24.65
2023-08-15T14:32:39.688Z,26.73
2023-08-15T14:35:09.278Z,25.05
2023-08-15T14:37:38.265Z,25.15
2023-08-15T14:40:08.707Z,26.55
2023-08-15T14:42:38.404Z,24.88
2023-08-15T14:45:10.300Z,24.15
2023-08-15T14:47:41.284Z,24.65
2023-08-15T14:50:11.294Z,24.67
2023-08-15T14:52:44.019Z,23.85
2023-08-15T14:55:13.640Z,24.15
2023-08-15T14:57:42.810Z,24.00
2023-08-15T15:00:14.865Z,24.63
2023-08-15T15:02:46.850Z,24.83
2023-08-15T15:05:16.044Z,27.23
2023-08-15T15:07:45.111Z,24.30
2023-08-15T15:10:14.190Z,25.35
2023-08-15T15:12:43.727Z,25.35
2023-08-15T15:15:14.515Z,22.73
2023-08-15T15:17:43.585Z,23.15
2023-08-15T15:20:13.740Z,21.88
2023-08-15T15:22:44.089Z,22.05
2023-08-15T15:25:13.072Z,23.17
2023-08-15T15:27:42.053Z,21.63
2023-08-15T15:30:11.722Z,20.95
2023-08-15T15:32:42.355Z,20.33
2023-08-15T15:35:12.410Z,20.83
2023-08-15T15:37:44.171Z,22.30
2023-08-15T15:40:14.506Z,21.63
2023-08-15T15:42:43.473Z,21.88
2023-08-15T15:45:12.713Z,19.92
2023-08-15T15:47:43.615Z,20.52
2023-08-15T15:50:12.707Z,20.95
2023-08-15T15:52:41.744Z,22.38
2023-08-15T15:55:11.321Z,21.27
2023-08-15T15:57:40.343Z,20.92
2023-08-15T16:00:14.663Z,20.58
2023-08-15T16:02:45.369Z,22.17
2023-08-15T16:05:14.647Z,20.98
2023-08-15T16:07:43.780Z,21.13
2023-08-15T16:10:13.233Z,20.70
2023-08-15T16:12:42.809Z,21.95
2023-08-15T16:15:12.389Z,20.17
2023-08-15T16:17:44.649Z,19.50
2023-08-15T16:20:15.842Z,19.17
2023-08-15T16:22:45.130Z,19.92
2023-08-15T16:25:14.278Z,19.95
2023-08-15T16:27:43.245Z,20.83
2023-08-15T16:30:17.813Z,18.42
2023-08-15T16:32:47.785Z,19.30
2023-08-15T16:35:18.695Z,15.27
2023-08-15T16:37:47.707Z,20.05
2023-08-15T16:40:16.751Z,20.60
2023-08-15T16:42:45.841Z,18.27
2023-08-15T16:45:14.845Z,19.30
2023-08-15T16:47:43.814Z,20.90
2023-08-15T16:50:12.864Z,20.50
2023-08-15T16:52:43.488Z,19.40
2023-08-15T16:55:12.470Z,19.38
2023-08-15T16:57:41.454Z,18.42
2023-08-15T17:00:11.535Z,16.90
2023-08-15T17:02:40.691Z,17.80
2023-08-15T17:05:10.584Z,18.00
2023-08-15T17:07:39.637Z,17.90
2023-08-15T17:10:11.235Z,17.23
2023-08-15T17:12:40.269Z,16.33
2023-08-15T17:15:10.321Z,15.52
2023-08-15T17:17:39.577Z,16.20
2023-08-15T17:20:10.370Z,18.33
2023-08-15T17:22:39.412Z,15.98
2023-08-15T17:25:11.167Z,17.52
2023-08-15T17:27:40.123Z,18.75
2023-08-15T17:30:10.267Z,17.25
2023-08-15T17:32:39.378Z,19.20
2023-08-15T17:35:09.928Z,16.65
2023-08-15T17:37:38.885Z,15.20
2023-08-15T17:40:09.106Z,14.77
2023-08-15T17:42:39.778Z,13.70
2023-08-15T17:45:09.809Z,18.30
2023-08-15T17:47:39.471Z,13.52
2023-08-15T17:50:09.327Z,15.00
2023-08-15T17:52:38.755Z,15.63
2023-08-15T17:55:09.161Z,14.73
2023-08-15T17:57:40.146Z,15.02
2023-08-15T18:00:11.157Z,15.73
2023-08-15T18:02:40.700Z,15.68
2023-08-15T18:05:12.454Z,15.57
2023-08-15T18:07:41.556Z,16.65
2023-08-15T18:10:11.262Z,15.60
2023-08-15T18:12:41.958Z,16.35
2023-08-15T18:15:12.358Z,14.35
2023-08-15T18:17:41.467Z,14.32
2023-08-15T18:20:11.228Z,15.18
2023-08-15T18:22:40.193Z,15.60
2023-08-15T18:25:09.818Z,15.50
2023-08-15T18:27:40.668Z,18.20
2023-08-15T18:30:10.725Z,16.75
2023-08-15T18:32:40.716Z,15.57
2023-08-15T18:35:10.475Z,13.82
2023-08-15T18:37:40.880Z,14.18
2023-08-15T18:40:11.651Z,13.50
2023-08-15T18:42:42.306Z,14.15
2023-08-15T18:45:12.423Z,14.70
2023-08-15T18:47:41.502Z,14.65
2023-08-15T18:50:11.507Z,12.73
2023-08-15T18:52:41.275Z,14.63
2023-08-15T18:55:10.785Z,14.60
2023-08-15T18:57:41.946Z,11.45
2023-08-15T19:00:13.485Z,13.25
2023-08-15T19:02:44.460Z,12.73
2023-08-15T19:05:13.715Z,13.43
2023-08-15T19:07:42.752Z,14.98
2023-08-15T19:10:12.333Z,13.70
2023-08-15T19:12:42.972Z,14.60
2023-08-15T19:15:18.654Z,18.80
2023-08-15T19:17:50.835Z,14.20
2023-08-15T19:20:22.676Z,12.43
2023-08-15T19:22:51.693Z,14.18
2023-08-15T19:25:20.830Z,11.20
2023-08-15T19:27:54.446Z,11.07
2023-08-15T19:30:24.496Z,11.88
2023-08-15T19:32:53.870Z,10.93
2023-08-15T19:35:23.093Z,9.80
2023-08-15T19:37:52.258Z,10.55
2023-08-15T19:40:21.413Z,10.13
2023-08-15T19:42:52.038Z,11.05
2023-08-15T19:45:21.205Z,11.02
2023-08-15T19:47:50.213Z,10.15
2023-08-15T19:50:19.368Z,12.07
2023-08-15T19:52:48.309Z,12.32
2023-08-15T19:55:17.588Z,11.27
2023-08-15T19:57:46.634Z,11.65
2023-08-15T20:00:17.681Z,10.80
2023-08-15T20:02:46.659Z,11.68
2023-08-15T20:05:15.761Z,11.57
2023-08-15T20:07:44.745Z,11.25
2023-08-15T20:10:13.906Z,10.88
2023-08-15T20:12:42.966Z,12.48
2023-08-15T20:15:12.839Z,12.27
2023-08-15T20:17:43.642Z,12.68
2023-08-15T20:20:13.362Z,11.95
2023-08-15T20:22:42.293Z,12.18
2023-08-15T20:25:11.862Z,12.00
2023-08-15T20:27:40.941Z,11.05
2023-08-15T20:30:11.490Z,11.27
2023-08-15T20:32:40.833Z,12.25
2023-08-15T20:35:12.006Z,10.77
2023-08-15T20:37:41.055Z,10.23
2023-08-15T20:40:14.543Z,10.60
2023-08-15T20:42:43.695Z,10.80
2023-08-15T20:45:13.144Z,9.82
2023-08-15T20:47:42.662Z,10.13
2023-08-15T20:50:15.832Z,10.05
2023-08-15T20:52:44.871Z,9.75
2023-08-15T20:55:15.894Z,9.35
2023-08-15T20:57:45.206Z,9.30
2023-08-15T21:00:15.341Z,9.02
2023-08-15T21:02:44.479Z,9.75
2023-08-15T21:05:17.063Z,8.57
2023-08-15T21:07:46.215Z,8.57
2023-08-15T21:10:15.201Z,8.77
2023-08-15T21:12:44.444Z,8.85
2023-08-15T21:15:13.515Z,8.93
2023-08-15T21:17:42.491Z,8.30
2023-08-15T21:20:13.831Z,8.20
2023-08-15T21:22:49.737Z,8.00
2023-08-15T21:25:19.213Z,7.97
2023-08-15T21:27:48.266Z,7.18
2023-08-15T21:30:17.290Z,7.47
2023-08-15T21:32:46.576Z,7.03
2023-08-15T21:35:17.403Z,6.85
2023-08-15T21:37:46.416Z,6.68
2023-08-15T21:40:16.001Z,7.10
2023-08-15T21:42:45.043Z,7.10
2023-08-15T21:45:15.220Z,6.95
2023-08-15T21:47:44.406Z,7.07
2023-08-15T21:50:17.404Z,6.80
2023-08-15T21:52:48.385Z,6.70
2023-08-15T21:55:19.145Z,7.22
2023-08-15T21:57:50.169Z,7.00
2023-08-15T22:00:21.068Z,7.18
2023-08-15T22:02:55.397Z,7.25
2023-08-15T22:05:28.696Z,7.45
2023-08-15T22:07:57.650Z,7.72
2023-08-15T22:10:26.836Z,8.07
2023-08-15T22:12:56.119Z,7.88
2023-08-15T22:15:28.775Z,7.50
2023-08-15T22:18:13.314Z,8.00
2023-08-15T22:20:49.032Z,7.72
2023-08-15T22:23:18.334Z,8.43
2023-08-15T22:25:47.928Z,8.38
2023-08-15T22:28:17.350Z,8.35
2023-08-15T22:30:47.152Z,8.52
2023-08-15T22:33:16.474Z,8.63
2023-08-15T22:35:45.573Z,8.13
2023-08-15T22:38:16.515Z,8.63
2023-08-15T22:40:45.563Z,8.63
2023-08-15T22:43:14.503Z,9.23
2023-08-15T22:45:45.322Z,8.82
2023-08-15T22:48:14.347Z,8.50
2023-08-15T22:50:43.497Z,9.27
2023-08-15T22:53:12.551Z,8.52
2023-08-15T22:55:43.135Z,8.98
2023-08-15T22:58:13.552Z,8.70
2023-08-15T23:00:42.754Z,8.15
2023-08-15T23:03:11.744Z,8.20
2023-08-15T23:05:40.725Z,7.65
2023-08-15T23:08:09.662Z,8.00
2023-08-15T23:10:38.628Z,7.65
2023-08-15T23:13:09.257Z,7.78
2023-08-15T23:15:38.253Z,7.72
2023-08-15T23:18:07.559Z,7.40
2023-08-15T23:20:36.678Z,7.10
2023-08-15T23:23:05.890Z,6.80
2023-08-15T23:25:34.938Z,6.47
2023-08-15T23:28:04.434Z,6.40
2023-08-15T23:30:35.035Z,5.72
2023-08-15T23:33:05.639Z,5.80
2023-08-15T23:35:34.672Z,5.80
2023-08-15T23:38:03.677Z,5.60
2023-08-15T23:40:32.913Z,5.28
2023-08-15T23:43:02.000Z,5.38
2023-08-15T23:45:31.687Z,4.85
2023-08-15T23:48:02.408Z,4.72
2023-08-15T23:50:31.477Z,4.75
2023-08-15T23:53:00.939Z,4.60
2023-08-15T23:55:30.076Z,5.03
2023-08-15T23:57:59.080Z,5.18
